createdAt,value
2023-05-21T00:00:03.383Z,16.47
2023-05-21T00:01:03.405Z,16.47
2023-05-21T00:02:03.419Z,16.47
2023-05-21T00:03:03.540Z,16.44
2023-05-21T00:04:03.646Z,16.44
2023-05-21T00:05:03.505Z,16.44
2023-05-21T00:06:03.592Z,16.42
2023-05-21T00:07:03.540Z,16.42
2023-05-21T00:08:03.564Z,16.42
2023-05-21T00:09:03.587Z,16.39
2023-05-21T00:10:03.633Z,16.39
2023-05-21T00:11:03.634Z,16.37
2023-05-21T00:12:03.629Z,16.32
2023-05-21T00:13:03.652Z,16.3
2023-05-21T00:14:03.673Z,16.27
2023-05-21T00:15:03.665Z,16.22
2023-05-21T00:16:03.773Z,16.24
2023-05-21T00:17:03.689Z,16.25
2023-05-21T00:18:03.732Z,16.23
2023-05-21T00:19:03.781Z,16.23
2023-05-21T00:20:03.739Z,16.23
2023-05-21T00:21:03.764Z,16.23
2023-05-21T00:22:03.808Z,16.19
2023-05-21T00:23:03.878Z,16.15
2023-05-21T00:24:03.839Z,16.08
2023-05-21T00:25:03.888Z,16.05
2023-05-21T00:26:03.892Z,16.05
2023-05-21T00:27:03.917Z,16.05
2023-05-21T00:28:03.957Z,16.05
2023-05-21T00:29:03.976Z,15.99
2023-05-21T00:30:03.984Z,15.97
2023-05-21T00:31:04.002Z,15.95
2023-05-21T00:32:04.130Z,15.95
2023-05-21T00:33:04.096Z,15.97
2023-05-21T00:34:04.095Z,15.88
2023-05-21T00:35:03.121Z,15.88
2023-05-21T00:36:03.124Z,15.84
2023-05-21T00:37:03.151Z,15.81
2023-05-21T00:38:03.158Z,15.81
2023-05-21T00:39:03.171Z,15.81
2023-05-21T00:40:03.198Z,15.79
2023-05-21T00:41:03.219Z,15.74
2023-05-21T00:42:03.245Z,15.74
2023-05-21T00:43:03.260Z,15.68
2023-05-21T00:44:03.256Z,15.64
2023-05-21T00:45:03.261Z,15.64
2023-05-21T00:46:03.302Z,15.64
2023-05-21T00:47:03.275Z,15.56
2023-05-21T00:48:03.358Z,15.58
2023-05-21T00:49:03.328Z,15.58
2023-05-21T00:50:03.354Z,15.57
2023-05-21T00:51:03.366Z,15.5
2023-05-21T00:52:03.395Z,15.52
2023-05-21T00:53:03.421Z,15.46
2023-05-21T00:54:03.450Z,15.46
2023-05-21T00:55:03.458Z,15.44
2023-05-21T00:56:03.501Z,15.42
2023-05-21T00:57:03.483Z,15.38
2023-05-21T00:58:03.509Z,15.38
2023-05-21T00:59:03.540Z,15.38
2023-05-21T01:00:03.546Z,15.36
2023-05-21T01:01:03.689Z,15.36
2023-05-21T01:02:03.632Z,15.33
2023-05-21T01:03:03.689Z,15.24
2023-05-21T01:04:03.621Z,15.26
2023-05-21T01:05:03.616Z,15.26
2023-05-21T01:06:03.635Z,15.24
2023-05-21T01:07:03.654Z,15.24
2023-05-21T01:08:03.636Z,15.16
2023-05-21T01:09:04.947Z,15.16
2023-05-21T01:10:03.677Z,15.13
2023-05-21T01:11:03.707Z,15.13
2023-05-21T01:12:03.745Z,15.13
2023-05-21T01:13:03.814Z,15.13
2023-05-21T01:14:03.785Z,15.05
2023-05-21T01:15:03.818Z,15.05
2023-05-21T01:16:03.846Z,14.99
2023-05-21T01:17:03.874Z,14.99
2023-05-21T01:18:03.948Z,14.95
2023-05-21T01:19:04.022Z,14.93
2023-05-21T01:20:03.920Z,14.93
2023-05-21T01:21:03.944Z,14.93
2023-05-21T01:22:03.968Z,14.91
2023-05-21T01:23:04.000Z,14.83
2023-05-21T01:24:04.029Z,14.83
2023-05-21T01:25:04.046Z,14.77
2023-05-21T01:26:04.080Z,14.75
2023-05-21T01:27:03.125Z,14.71
2023-05-21T01:28:03.108Z,14.67
2023-05-21T01:29:03.133Z,14.67
2023-05-21T01:30:03.155Z,14.67
2023-05-21T01:31:03.188Z,14.66
2023-05-21T01:32:03.202Z,14.59
2023-05-21T01:33:03.429Z,14.55
2023-05-21T01:34:03.253Z,14.53
2023-05-21T01:35:03.247Z,14.53
2023-05-21T01:36:03.249Z,14.55
2023-05-21T01:37:03.267Z,14.49
2023-05-21T01:38:03.263Z,14.47
2023-05-21T01:39:03.278Z,14.39
2023-05-21T01:40:03.313Z,14.41
2023-05-21T01:41:03.312Z,14.41
2023-05-21T01:42:03.336Z,14.41
2023-05-21T01:43:03.357Z,14.38
2023-05-21T01:44:03.379Z,14.33
2023-05-21T01:45:03.456Z,14.35
2023-05-21T01:46:03.469Z,14.32
2023-05-21T01:47:03.528Z,14.27
2023-05-21T01:48:03.551Z,14.27
2023-05-21T01:49:03.525Z,14.23
2023-05-21T01:50:03.550Z,14.21
2023-05-21T01:51:03.597Z,14.21
2023-05-21T01:52:03.614Z,14.21
2023-05-21T01:53:03.651Z,14.18
2023-05-21T01:54:03.637Z,14.18
2023-05-21T01:55:03.661Z,14.16
2023-05-21T01:56:03.674Z,14.07
2023-05-21T01:57:03.695Z,14.05
2023-05-21T01:58:03.740Z,14.05
2023-05-21T01:59:03.733Z,14.05
2023-05-21T02:00:03.741Z,13.99
2023-05-21T02:01:03.753Z,14.01
2023-05-21T02:02:03.836Z,13.99
2023-05-21T02:03:03.885Z,13.99
2023-05-21T02:04:03.826Z,13.93
2023-05-21T02:05:03.785Z,13.93
2023-05-21T02:06:03.812Z,13.93
2023-05-21T02:07:03.873Z,13.91
2023-05-21T02:08:03.870Z,13.87
2023-05-21T02:09:03.887Z,13.87
2023-05-21T02:10:03.908Z,13.87
2023-05-21T02:11:03.935Z,13.87
2023-05-21T02:12:03.985Z,13.87
2023-05-21T02:13:03.988Z,13.87
2023-05-21T02:14:03.996Z,13.78
2023-05-21T02:15:04.021Z,13.76
2023-05-21T02:16:04.072Z,13.76
2023-05-21T02:17:04.102Z,13.76
2023-05-21T02:18:04.170Z,13.74
2023-05-21T02:19:03.187Z,13.74
2023-05-21T02:20:03.126Z,13.74
2023-05-21T02:21:03.134Z,13.74
2023-05-21T02:22:03.173Z,13.75
2023-05-21T02:23:03.185Z,13.66
2023-05-21T02:24:03.179Z,13.66
2023-05-21T02:25:03.190Z,13.62
2023-05-21T02:26:03.192Z,13.62
2023-05-21T02:27:03.232Z,13.6
2023-05-21T02:28:03.215Z,13.6
2023-05-21T02:29:03.234Z,13.6
2023-05-21T02:30:03.260Z,13.61
2023-05-21T02:31:03.290Z,13.61
2023-05-21T02:32:03.323Z,13.56
2023-05-21T02:33:03.400Z,13.53
2023-05-21T02:34:03.425Z,13.53
2023-05-21T02:35:03.379Z,13.53
2023-05-21T02:36:03.402Z,13.53
2023-05-21T02:37:03.435Z,13.53
2023-05-21T02:38:03.490Z,13.51
2023-05-21T02:39:03.512Z,13.51
2023-05-21T02:40:03.545Z,13.51
2023-05-21T02:41:03.549Z,13.51
2023-05-21T02:42:03.570Z,13.45
2023-05-21T02:43:03.596Z,13.38
2023-05-21T02:44:03.629Z,13.38
2023-05-21T02:45:03.668Z,13.38
2023-05-21T02:46:03.706Z,13.38
2023-05-21T02:47:03.699Z,13.38
2023-05-21T02:48:03.777Z,13.38
2023-05-21T02:49:03.742Z,13.39
2023-05-21T02:50:03.765Z,13.35
2023-05-21T02:51:03.765Z,13.35
2023-05-21T02:52:03.788Z,13.35
2023-05-21T02:53:03.812Z,13.35
2023-05-21T02:54:03.828Z,13.35
2023-05-21T02:55:03.853Z,13.3
2023-05-21T02:56:03.847Z,13.31
2023-05-21T02:57:03.877Z,13.3
2023-05-21T02:58:03.871Z,13.3
2023-05-21T02:59:03.876Z,13.3
2023-05-21T03:00:03.884Z,13.3
2023-05-21T03:01:03.896Z,13.29
2023-05-21T03:02:03.929Z,13.24
2023-05-21T03:03:04.057Z,13.25
2023-05-21T03:04:03.959Z,13.25
2023-05-21T03:05:03.976Z,13.24
2023-05-21T03:06:04.010Z,13.25
2023-05-21T03:07:04.033Z,13.25
2023-05-21T03:08:04.092Z,13.25
2023-05-21T03:09:03.100Z,13.25
2023-05-21T03:10:03.142Z,13.25
2023-05-21T03:11:03.201Z,13.27
2023-05-21T03:12:03.183Z,13.24
2023-05-21T03:13:03.231Z,13.27
2023-05-21T03:14:03.242Z,13.27
2023-05-21T03:15:03.277Z,13.27
2023-05-21T03:16:03.270Z,13.27
2023-05-21T03:17:03.310Z,13.31
2023-05-21T03:18:03.370Z,13.31
2023-05-21T03:19:03.388Z,13.33
2023-05-21T03:20:03.355Z,13.31
2023-05-21T03:21:03.352Z,13.29
2023-05-21T03:22:03.382Z,13.29
2023-05-21T03:23:03.377Z,13.33
2023-05-21T03:24:03.405Z,13.33
2023-05-21T03:25:03.417Z,13.31
2023-05-21T03:26:03.425Z,13.31
2023-05-21T03:27:03.469Z,13.31
2023-05-21T03:28:03.441Z,13.31
2023-05-21T03:29:03.480Z,13.34
2023-05-21T03:30:05.349Z,13.34
2023-05-21T03:31:03.528Z,13.34
2023-05-21T03:32:03.639Z,13.34
2023-05-21T03:33:03.663Z,13.36
2023-05-21T03:34:03.600Z,13.36
2023-05-21T03:35:03.629Z,13.36
2023-05-21T03:36:03.653Z,13.36
2023-05-21T03:37:03.666Z,13.39
2023-05-21T03:38:03.731Z,13.39
2023-05-21T03:39:03.769Z,13.41
2023-05-21T03:40:03.749Z,13.39
2023-05-21T03:41:03.779Z,13.41
2023-05-21T03:42:03.808Z,13.41
2023-05-21T03:43:03.807Z,13.42
2023-05-21T03:44:03.836Z,13.42
2023-05-21T03:45:03.851Z,13.44
2023-05-21T03:46:03.897Z,13.46
2023-05-21T03:47:03.894Z,13.46
2023-05-21T03:48:04.010Z,13.5
2023-05-21T03:49:03.929Z,13.52
2023-05-21T03:50:03.943Z,13.6
2023-05-21T03:51:03.958Z,13.6
2023-05-21T03:52:03.966Z,13.6
2023-05-21T03:53:03.972Z,13.62
2023-05-21T03:54:04.002Z,13.62
2023-05-21T03:55:04.006Z,13.62
2023-05-21T03:56:04.001Z,13.65
2023-05-21T03:57:04.033Z,13.65
2023-05-21T03:58:04.049Z,13.7
2023-05-21T03:59:04.078Z,13.71
2023-05-21T04:00:03.124Z,13.71
2023-05-21T04:01:03.157Z,13.71
2023-05-21T04:02:03.212Z,13.73
2023-05-21T04:03:03.272Z,13.73
2023-05-21T04:04:03.413Z,13.73
2023-05-21T04:05:03.221Z,13.79
2023-05-21T04:06:03.259Z,13.89
2023-05-21T04:07:03.279Z,13.91
2023-05-21T04:08:03.289Z,13.91
2023-05-21T04:09:03.304Z,13.94
2023-05-21T04:10:03.331Z,13.94
2023-05-21T04:11:03.351Z,14.02
2023-05-21T04:12:03.408Z,14.02
2023-05-21T04:13:03.408Z,14.02
2023-05-21T04:14:03.390Z,14.04
2023-05-21T04:15:03.414Z,14.08
2023-05-21T04:16:03.478Z,14.1
2023-05-21T04:17:03.445Z,14.12
2023-05-21T04:18:03.535Z,14.14
2023-05-21T04:19:03.530Z,14.19
2023-05-21T04:20:03.475Z,14.25
2023-05-21T04:21:03.512Z,14.28
2023-05-21T04:22:03.493Z,14.29
2023-05-21T04:23:03.538Z,14.31
2023-05-21T04:24:03.565Z,14.31
2023-05-21T04:25:03.560Z,14.37
2023-05-21T04:26:03.585Z,14.35
2023-05-21T04:27:03.633Z,14.42
2023-05-21T04:28:03.629Z,14.46
2023-05-21T04:29:03.676Z,14.51
2023-05-21T04:30:03.691Z,14.56
2023-05-21T04:31:03.725Z,14.58
2023-05-21T04:32:03.752Z,14.58
2023-05-21T04:33:03.789Z,14.58
2023-05-21T04:34:03.786Z,14.66
2023-05-21T04:35:03.797Z,14.66
2023-05-21T04:36:03.861Z,14.69
2023-05-21T04:37:03.877Z,14.77
2023-05-21T04:38:04.346Z,14.83
2023-05-21T04:39:03.888Z,14.85
2023-05-21T04:40:03.920Z,14.85
2023-05-21T04:41:03.961Z,14.91
2023-05-21T04:42:03.971Z,14.94
2023-05-21T04:43:03.982Z,14.96
2023-05-21T04:44:04.007Z,15.02
2023-05-21T04:45:04.043Z,15.12
2023-05-21T04:46:04.018Z,15.14
2023-05-21T04:47:04.158Z,15.22
2023-05-21T04:48:04.066Z,15.25
2023-05-21T04:49:04.044Z,15.26
2023-05-21T04:50:04.062Z,15.36
2023-05-21T04:51:04.099Z,15.39
2023-05-21T04:52:03.096Z,15.45
2023-05-21T04:53:03.134Z,15.53
2023-05-21T04:54:03.163Z,15.54
2023-05-21T04:55:03.190Z,15.61
2023-05-21T04:56:03.211Z,15.65
2023-05-21T04:57:03.263Z,15.65
2023-05-21T04:58:03.260Z,15.69
2023-05-21T04:59:05.164Z,15.77
2023-05-21T05:00:03.319Z,15.81
2023-05-21T05:01:03.481Z,15.89
2023-05-21T05:02:03.372Z,15.92
2023-05-21T05:03:03.467Z,15.96
2023-05-21T05:04:03.418Z,16.04
2023-05-21T05:05:03.448Z,16.12
2023-05-21T05:06:03.439Z,16.16
2023-05-21T05:07:03.469Z,16.16
2023-05-21T05:08:03.484Z,16.26
2023-05-21T05:09:03.509Z,16.3
2023-05-21T05:10:03.541Z,16.34
2023-05-21T05:11:03.561Z,16.36
2023-05-21T05:12:03.550Z,16.4
2023-05-21T05:13:03.611Z,16.46
2023-05-21T05:14:03.595Z,16.54
2023-05-21T05:15:03.624Z,16.56
2023-05-21T05:16:03.680Z,16.58
2023-05-21T05:17:03.655Z,16.66
2023-05-21T05:18:03.731Z,16.66
2023-05-21T05:19:03.693Z,16.76
2023-05-21T05:20:03.681Z,16.78
2023-05-21T05:21:03.722Z,16.8
2023-05-21T05:22:03.756Z,16.87
2023-05-21T05:23:03.940Z,16.94
2023-05-21T05:24:03.785Z,16.98
2023-05-21T05:25:03.814Z,16.98
2023-05-21T05:26:03.840Z,17.06
2023-05-21T05:27:03.860Z,17.06
2023-05-21T05:28:03.886Z,17.1
2023-05-21T05:29:03.938Z,17.21
2023-05-21T05:30:03.919Z,17.24
2023-05-21T05:31:03.971Z,17.26
2023-05-21T05:32:03.968Z,17.3
2023-05-21T05:33:04.027Z,17.37
2023-05-21T05:34:04.136Z,17.4
2023-05-21T05:35:04.060Z,17.41
2023-05-21T05:36:04.067Z,17.41
2023-05-21T05:37:04.098Z,17.52
2023-05-21T05:38:03.105Z,17.56
2023-05-21T05:39:03.124Z,17.56
2023-05-21T05:40:03.125Z,17.56
2023-05-21T05:41:03.138Z,17.66
2023-05-21T05:42:03.182Z,17.68
2023-05-21T05:43:03.176Z,17.71
2023-05-21T05:44:03.188Z,17.7
2023-05-21T05:45:03.214Z,17.72
2023-05-21T05:46:03.198Z,17.76
2023-05-21T05:47:03.224Z,17.78
2023-05-21T05:48:03.297Z,17.82
2023-05-21T05:49:03.264Z,17.86
2023-05-21T05:50:03.299Z,17.86
2023-05-21T05:51:03.312Z,17.96
2023-05-21T05:52:03.358Z,17.96
2023-05-21T05:53:03.377Z,17.96
2023-05-21T05:54:03.403Z,18.02
2023-05-21T05:55:03.431Z,18.02
2023-05-21T05:56:03.441Z,18.06
2023-05-21T05:57:03.479Z,18.06
2023-05-21T05:58:03.495Z,18.07
2023-05-21T05:59:03.527Z,18.12
2023-05-21T06:00:03.548Z,18.14
2023-05-21T06:01:03.568Z,18.16
2023-05-21T06:02:03.604Z,18.2
2023-05-21T06:03:03.697Z,18.2
2023-05-21T06:04:03.642Z,18.2
2023-05-21T06:05:03.665Z,18.22
2023-05-21T06:06:03.699Z,18.2
2023-05-21T06:07:03.715Z,18.26
2023-05-21T06:08:03.691Z,18.26
2023-05-21T06:09:03.729Z,18.26
2023-05-21T06:10:03.717Z,18.26
2023-05-21T06:11:03.724Z,18.26
2023-05-21T06:12:03.762Z,18.26
2023-05-21T06:13:03.735Z,18.29
2023-05-21T06:14:03.770Z,18.29
2023-05-21T06:15:03.819Z,18.29
2023-05-21T06:16:03.881Z,18.29
2023-05-21T06:17:03.849Z,18.29
2023-05-21T06:18:03.916Z,18.29
2023-05-21T06:19:03.923Z,18.29
2023-05-21T06:20:03.915Z,18.36
2023-05-21T06:21:03.933Z,18.36
2023-05-21T06:22:03.968Z,18.42
2023-05-21T06:23:03.984Z,18.46
2023-05-21T06:24:03.997Z,18.47
2023-05-21T06:25:04.032Z,18.47
2023-05-21T06:26:04.043Z,18.47
2023-05-21T06:27:04.101Z,18.49
2023-05-21T06:28:04.086Z,18.49
2023-05-21T06:29:03.120Z,18.51
2023-05-21T06:30:03.123Z,18.54
2023-05-21T06:31:03.138Z,18.54
2023-05-21T06:32:03.157Z,18.54
2023-05-21T06:33:03.321Z,18.54
2023-05-21T06:34:03.279Z,18.62
2023-05-21T06:35:03.239Z,18.6
2023-05-21T06:36:03.215Z,18.62
2023-05-21T06:37:03.210Z,18.62
2023-05-21T06:38:03.233Z,18.62
2023-05-21T06:39:03.245Z,18.66
2023-05-21T06:40:03.252Z,18.68
2023-05-21T06:41:03.266Z,18.68
2023-05-21T06:42:03.300Z,18.68
2023-05-21T06:43:03.314Z,18.7
2023-05-21T06:44:03.350Z,18.72
2023-05-21T06:45:03.377Z,18.75
2023-05-21T06:46:03.498Z,18.77
2023-05-21T06:47:03.431Z,18.8
2023-05-21T06:48:03.501Z,18.92
2023-05-21T06:49:03.491Z,18.98
2023-05-21T06:50:03.509Z,19.06
2023-05-21T06:51:03.550Z,19.11
2023-05-21T06:52:03.544Z,19.18
2023-05-21T06:53:03.564Z,19.24
2023-05-21T06:54:03.587Z,19.37
2023-05-21T06:55:03.604Z,19.48
2023-05-21T06:56:03.638Z,19.6
2023-05-21T06:57:03.670Z,19.74
2023-05-21T06:58:03.649Z,19.94
2023-05-21T06:59:03.662Z,20.12
2023-05-21T07:00:03.667Z,20.31
2023-05-21T07:01:03.680Z,20.43
2023-05-21T07:02:04.585Z,20.6
2023-05-21T07:03:03.764Z,20.73
2023-05-21T07:04:03.707Z,20.85
2023-05-21T07:05:03.733Z,21.05
2023-05-21T07:06:03.755Z,21.17
2023-05-21T07:07:03.799Z,21.32
2023-05-21T07:08:03.823Z,21.53
2023-05-21T07:09:03.845Z,21.59
2023-05-21T07:10:03.871Z,21.76
2023-05-21T07:11:03.915Z,21.89
2023-05-21T07:12:03.946Z,21.99
2023-05-21T07:13:03.966Z,22.12
2023-05-21T07:14:03.979Z,22.21
2023-05-21T07:15:04.018Z,22.32
2023-05-21T07:16:04.043Z,22.45
2023-05-21T07:17:04.071Z,22.54
2023-05-21T07:18:04.202Z,22.62
2023-05-21T07:19:03.156Z,22.69
2023-05-21T07:20:03.120Z,22.88
2023-05-21T07:21:03.135Z,22.95
2023-05-21T07:22:03.150Z,23.09
2023-05-21T07:23:03.173Z,23.12
2023-05-21T07:24:03.216Z,23.17
2023-05-21T07:25:03.216Z,23.27
2023-05-21T07:26:03.267Z,23.33
2023-05-21T07:27:06.597Z,23.35
2023-05-21T07:28:04.592Z,23.41
2023-05-21T07:29:03.284Z,23.48
2023-05-21T07:30:03.310Z,23.59
2023-05-21T07:31:03.352Z,23.71
2023-05-21T07:32:03.315Z,23.85
2023-05-21T07:33:03.398Z,23.93
2023-05-21T07:34:03.355Z,24.05
2023-05-21T07:35:03.367Z,24.1
2023-05-21T07:36:03.381Z,24.15
2023-05-21T07:37:03.423Z,24.23
2023-05-21T07:38:03.454Z,24.31
2023-05-21T07:39:03.468Z,24.35
2023-05-21T07:40:03.513Z,24.44
2023-05-21T07:41:03.513Z,24.48
2023-05-21T07:42:03.545Z,24.48
2023-05-21T07:43:03.579Z,24.5
2023-05-21T07:44:03.591Z,24.45
2023-05-21T07:45:03.614Z,24.48
2023-05-21T07:46:03.671Z,24.43
2023-05-21T07:47:03.676Z,24.41
2023-05-21T07:48:03.733Z,24.45
2023-05-21T07:49:03.729Z,24.53
2023-05-21T07:50:03.744Z,24.57
2023-05-21T07:51:03.761Z,24.65
2023-05-21T07:52:03.781Z,24.69
2023-05-21T07:53:03.868Z,24.69
2023-05-21T07:54:03.846Z,24.66
2023-05-21T07:55:03.824Z,24.61
2023-05-21T07:56:03.838Z,24.61
2023-05-21T07:57:03.855Z,24.59
2023-05-21T07:58:03.873Z,24.47
2023-05-21T07:59:03.895Z,24.38
2023-05-21T08:00:03.884Z,24.32
2023-05-21T08:01:03.889Z,24.31
2023-05-21T08:02:03.912Z,24.25
2023-05-21T08:03:03.998Z,24.28
2023-05-21T08:04:04.112Z,24.35
2023-05-21T08:05:04.011Z,24.48
2023-05-21T08:06:04.006Z,24.55
2023-05-21T08:07:04.037Z,24.66
2023-05-21T08:08:04.058Z,24.79
2023-05-21T08:09:04.094Z,24.82
2023-05-21T08:10:03.163Z,24.92
2023-05-21T08:11:03.143Z,24.98
2023-05-21T08:12:03.160Z,25.16
2023-05-21T08:13:03.196Z,25.21
2023-05-21T08:14:03.223Z,25.26
2023-05-21T08:15:03.235Z,25.33
2023-05-21T08:16:03.278Z,25.41
2023-05-21T08:17:03.279Z,25.52
2023-05-21T08:18:03.344Z,25.64
2023-05-21T08:19:03.400Z,25.74
2023-05-21T08:20:03.320Z,25.81
2023-05-21T08:21:03.341Z,25.87
2023-05-21T08:22:03.357Z,25.85
2023-05-21T08:23:03.395Z,25.85
2023-05-21T08:24:03.371Z,25.82
2023-05-21T08:25:03.413Z,25.8
2023-05-21T08:26:03.382Z,25.78
2023-05-21T08:27:03.399Z,25.85
2023-05-21T08:28:03.445Z,25.84
2023-05-21T08:29:03.476Z,25.8
2023-05-21T08:30:03.494Z,25.74
2023-05-21T08:31:03.549Z,25.73
2023-05-21T08:32:03.640Z,25.7
2023-05-21T08:33:03.586Z,25.75
2023-05-21T08:34:03.597Z,25.75
2023-05-21T08:35:03.635Z,25.83
2023-05-21T08:36:03.629Z,25.85
2023-05-21T08:37:03.660Z,25.88
2023-05-21T08:38:03.682Z,25.91
2023-05-21T08:39:03.697Z,25.94
2023-05-21T08:40:03.750Z,25.98
2023-05-21T08:41:03.754Z,26.02
2023-05-21T08:42:03.779Z,25.97
2023-05-21T08:43:03.796Z,26.02
2023-05-21T08:44:03.855Z,26
2023-05-21T08:45:03.858Z,25.98
2023-05-21T08:46:03.936Z,25.98
2023-05-21T08:47:03.911Z,25.98
2023-05-21T08:48:03.955Z,26.1
2023-05-21T08:49:03.922Z,26.08
2023-05-21T08:50:03.946Z,26.06
2023-05-21T08:51:03.946Z,25.97
2023-05-21T08:52:03.968Z,25.85
2023-05-21T08:53:07.588Z,25.78
2023-05-21T08:54:04.006Z,25.69
2023-05-21T08:55:04.032Z,25.65
2023-05-21T08:56:04.026Z,25.59
2023-05-21T08:57:04.016Z,25.55
2023-05-21T08:58:04.058Z,25.46
2023-05-21T08:59:04.085Z,25.39
2023-05-21T09:00:03.108Z,25.47
2023-05-21T09:01:03.156Z,25.42
2023-05-21T09:02:03.189Z,25.31
2023-05-21T09:03:03.313Z,25.26
2023-05-21T09:04:19.010Z,25.29
2023-05-21T09:05:03.236Z,25.24
2023-05-21T09:06:03.278Z,25.2
2023-05-21T09:07:03.319Z,25.16
2023-05-21T09:08:03.316Z,25.11
2023-05-21T09:09:03.366Z,25.06
2023-05-21T09:10:03.366Z,25.11
2023-05-21T09:11:03.402Z,25.09
2023-05-21T09:12:03.420Z,25.12
2023-05-21T09:13:03.454Z,25.13
2023-05-21T09:14:03.584Z,25.1
2023-05-21T09:15:03.487Z,25.14
2023-05-21T09:16:03.493Z,25.1
2023-05-21T09:17:03.577Z,25.22
2023-05-21T09:18:03.570Z,25.2
2023-05-21T09:19:04.772Z,25.24
2023-05-21T09:20:03.563Z,25.27
2023-05-21T09:21:03.565Z,25.27
2023-05-21T09:22:03.574Z,25.25
2023-05-21T09:23:03.610Z,25.36
2023-05-21T09:24:03.595Z,25.32
2023-05-21T09:25:03.597Z,25.29
2023-05-21T09:26:03.600Z,25.27
2023-05-21T09:27:03.686Z,25.17
2023-05-21T09:28:03.672Z,25.15
2023-05-21T09:29:03.720Z,25.14
2023-05-21T09:30:03.715Z,25.12
2023-05-21T09:31:03.754Z,25.12
2023-05-21T09:32:03.786Z,25.1
2023-05-21T09:33:03.862Z,25.05
2023-05-21T09:34:03.825Z,25.1
2023-05-21T09:35:03.849Z,25.1
2023-05-21T09:36:03.870Z,25.1
2023-05-21T09:38:03.923Z,25.11
2023-05-21T09:39:03.959Z,25.14
2023-05-21T09:40:03.957Z,25.15
2023-05-21T09:41:03.985Z,25.13
2023-05-21T09:42:04.002Z,25.22
2023-05-21T09:43:04.025Z,25.22
2023-05-21T09:44:04.101Z,25.25
2023-05-21T09:45:04.079Z,25.25
2023-05-21T09:46:04.111Z,25.25
2023-05-21T09:47:03.094Z,25.33
2023-05-21T09:48:03.148Z,25.35
2023-05-21T09:49:03.123Z,25.43
2023-05-21T09:50:03.150Z,25.45
2023-05-21T09:51:03.147Z,25.56
2023-05-21T09:52:03.156Z,25.56
2023-05-21T09:53:03.161Z,25.62
2023-05-21T09:54:03.192Z,25.62
2023-05-21T09:55:03.220Z,25.61
2023-05-21T09:56:03.229Z,25.54
2023-05-21T09:57:03.567Z,25.54
2023-05-21T09:58:03.279Z,25.56
2023-05-21T09:59:03.320Z,25.53
2023-05-21T10:00:03.354Z,25.53
2023-05-21T10:01:03.373Z,25.53
2023-05-21T10:02:03.432Z,25.56
2023-05-21T10:03:03.482Z,25.54
2023-05-21T10:04:03.478Z,25.51
2023-05-21T10:05:03.483Z,25.51
2023-05-21T10:06:03.515Z,25.55
2023-05-21T10:07:03.546Z,25.61
2023-05-21T10:08:03.610Z,25.61
2023-05-21T10:09:05.643Z,25.61
2023-05-21T10:10:03.634Z,25.63
2023-05-21T10:11:03.656Z,25.71
2023-05-21T10:12:03.686Z,25.83
2023-05-21T10:13:03.707Z,25.89
2023-05-21T10:14:03.774Z,25.98
2023-05-21T10:15:03.770Z,26.08
2023-05-21T10:16:03.800Z,26.12
2023-05-21T10:17:03.823Z,26.18
2023-05-21T10:18:03.899Z,26.16
2023-05-21T10:19:03.878Z,26.2
2023-05-21T10:20:03.866Z,26.2
2023-05-21T10:21:03.891Z,26.26
2023-05-21T10:22:03.930Z,26.31
2023-05-21T10:23:03.978Z,26.31
2023-05-21T10:24:03.957Z,26.31
2023-05-21T10:25:04.028Z,26.31
2023-05-21T10:26:03.997Z,26.24
2023-05-21T10:27:04.008Z,26.21
2023-05-21T10:28:04.063Z,26.21
2023-05-21T10:29:04.089Z,26.24
2023-05-21T10:30:04.049Z,26.24
2023-05-21T10:31:04.096Z,26.24
2023-05-21T10:32:04.094Z,26.24
2023-05-21T10:33:04.159Z,26.24
2023-05-21T10:34:03.123Z,26.12
2023-05-21T10:35:03.142Z,26.19
2023-05-21T10:36:03.144Z,26.19
2023-05-21T10:37:03.206Z,26.19
2023-05-21T10:38:03.277Z,26.19
2023-05-21T10:39:03.233Z,26.22
2023-05-21T10:40:03.253Z,26.22
2023-05-21T10:41:03.278Z,26.18
2023-05-21T10:42:03.336Z,26.14
2023-05-21T10:43:03.378Z,26.14
2023-05-21T10:44:03.348Z,26.14
2023-05-21T10:45:03.377Z,26.18
2023-05-21T10:46:03.430Z,26.2
2023-05-21T10:47:03.425Z,26.2
2023-05-21T10:48:03.497Z,26.22
2023-05-21T10:49:03.480Z,26.22
2023-05-21T10:50:03.482Z,26.2
2023-05-21T10:51:03.505Z,26.26
2023-05-21T10:52:03.520Z,26.22
2023-05-21T10:53:03.545Z,26.36
2023-05-21T10:54:03.552Z,26.38
2023-05-21T10:55:03.567Z,26.36
2023-05-21T10:56:03.561Z,26.39
2023-05-21T10:57:03.599Z,26.41
2023-05-21T10:58:03.591Z,26.47
2023-05-21T10:59:03.596Z,26.51
2023-05-21T11:00:03.623Z,26.51
2023-05-21T11:01:03.643Z,26.57
2023-05-21T11:02:03.694Z,26.57
2023-05-21T11:03:03.721Z,26.65
2023-05-21T11:04:03.712Z,26.64
2023-05-21T11:05:03.782Z,26.64
2023-05-21T11:06:03.775Z,26.83
2023-05-21T11:07:03.839Z,26.81
2023-05-21T11:08:03.820Z,26.85
2023-05-21T11:09:03.852Z,26.91
2023-05-21T11:10:03.875Z,26.91
2023-05-21T11:11:03.901Z,26.91
2023-05-21T11:12:03.939Z,26.93
2023-05-21T11:13:04.013Z,26.95
2023-05-21T11:14:03.968Z,26.95
2023-05-21T11:15:03.996Z,27.01
2023-05-21T11:16:04.024Z,27.1
2023-05-21T11:17:04.108Z,27.12
2023-05-21T11:18:04.110Z,27.2
2023-05-21T11:19:03.239Z,27.2
2023-05-21T11:20:03.119Z,27.2
2023-05-21T11:21:03.144Z,27.2
2023-05-21T11:22:03.168Z,27.28
2023-05-21T11:23:03.182Z,27.37
2023-05-21T11:24:03.261Z,27.43
2023-05-21T11:25:03.223Z,27.46
2023-05-21T11:26:03.232Z,27.48
2023-05-21T11:27:03.245Z,27.6
2023-05-21T11:28:03.257Z,27.71
2023-05-21T11:29:03.321Z,27.76
2023-05-21T11:30:03.285Z,27.75
2023-05-21T11:31:03.304Z,27.73
2023-05-21T11:32:03.287Z,27.75
2023-05-21T11:33:03.367Z,27.75
2023-05-21T11:34:03.348Z,27.85
2023-05-21T11:35:03.372Z,27.85
2023-05-21T11:36:03.438Z,27.85
2023-05-21T11:37:03.455Z,27.87
2023-05-21T11:38:03.456Z,27.87
2023-05-21T11:39:03.477Z,27.9
2023-05-21T11:40:03.509Z,27.95
2023-05-21T11:41:03.537Z,27.95
2023-05-21T11:42:04.809Z,27.86
2023-05-21T11:43:03.601Z,27.8
2023-05-21T11:44:03.614Z,27.71
2023-05-21T11:45:03.656Z,27.61
2023-05-21T11:46:03.730Z,27.45
2023-05-21T11:47:03.684Z,27.43
2023-05-21T11:48:03.762Z,27.45
2023-05-21T11:49:03.754Z,27.38
2023-05-21T11:50:03.771Z,27.38
2023-05-21T11:51:03.777Z,27.38
2023-05-21T11:52:03.804Z,27.3
2023-05-21T11:53:03.830Z,27.32
2023-05-21T11:54:03.846Z,27.15
2023-05-21T11:55:03.857Z,27.15
2023-05-21T11:56:03.888Z,27.15
2023-05-21T11:57:03.930Z,27.17
2023-05-21T11:58:03.910Z,27.17
2023-05-21T11:59:03.931Z,27.17
2023-05-21T12:00:03.938Z,27.17
2023-05-21T12:01:03.957Z,27.15
2023-05-21T12:02:03.981Z,27.26
2023-05-21T12:03:04.028Z,27.26
2023-05-21T12:04:04.072Z,27.4
2023-05-21T12:05:04.000Z,27.5
2023-05-21T12:06:04.120Z,27.52
2023-05-21T12:07:04.050Z,27.42
2023-05-21T12:08:04.115Z,27.37
2023-05-21T12:09:04.111Z,27.31
2023-05-21T12:10:03.114Z,27.28
2023-05-21T12:11:03.154Z,27.28
2023-05-21T12:12:03.164Z,27.3
2023-05-21T12:13:03.179Z,27.24
2023-05-21T12:14:03.264Z,27.24
2023-05-21T12:15:03.233Z,27.27
2023-05-21T12:16:04.576Z,27.27
2023-05-21T12:17:03.293Z,27.33
2023-05-21T12:18:03.333Z,27.39
2023-05-21T12:19:03.370Z,27.39
2023-05-21T12:20:03.331Z,27.47
2023-05-21T12:21:03.368Z,27.52
2023-05-21T12:22:03.407Z,27.54
2023-05-21T12:23:03.393Z,27.6
2023-05-21T12:24:03.416Z,27.68
2023-05-21T12:25:03.427Z,27.99
2023-05-21T12:26:03.438Z,27.99
2023-05-21T12:27:03.462Z,28.14
2023-05-21T12:28:03.529Z,28.33
2023-05-21T12:29:03.512Z,28.6
2023-05-21T12:30:03.485Z,28.77
2023-05-21T12:31:03.491Z,28.96
2023-05-21T12:32:03.662Z,29.17
2023-05-21T12:33:03.585Z,29.27
2023-05-21T12:34:03.590Z,29.27
2023-05-21T12:35:03.648Z,29.33
2023-05-21T12:36:03.610Z,29.29
2023-05-21T12:37:03.642Z,29.07
2023-05-21T12:38:03.663Z,28.98
2023-05-21T12:39:03.687Z,28.93
2023-05-21T12:40:03.734Z,28.81
2023-05-21T12:41:03.737Z,28.78
2023-05-21T12:42:03.771Z,28.81
2023-05-21T12:43:03.801Z,28.7
2023-05-21T12:44:03.817Z,28.59
2023-05-21T12:45:03.844Z,28.58
2023-05-21T12:46:03.913Z,28.54
2023-05-21T12:47:03.892Z,28.51
2023-05-21T12:48:04.005Z,28.47
2023-05-21T12:49:03.930Z,28.47
2023-05-21T12:50:03.969Z,28.43
2023-05-21T12:51:03.966Z,28.46
2023-05-21T12:52:04.005Z,28.45
2023-05-21T12:53:04.032Z,28.43
2023-05-21T12:54:04.020Z,28.39
2023-05-21T12:55:04.029Z,28.33